createdAt,value
2022-12-01T00:01:16.697Z,8.069013551228272
2022-12-01T00:04:16.788Z,8.033046918887703
2022-12-01T00:11:16.695Z,8.006071953990977
2022-12-01T00:14:16.856Z,7.955333351277022
2022-12-01T00:17:16.433Z,7.9225780658656735
2022-12-01T00:21:18.614Z,7.894318613446376
2022-12-01T00:24:22.339Z,7.8821156708051605
2022-12-01T00:27:20.073Z,7.860921090119518
2022-12-01T00:31:17.274Z,7.805686751602115
2022-12-01T00:34:22.407Z,7.84165329379357
2022-12-01T00:37:16.660Z,7.837157475239747
2022-12-01T00:41:16.236Z,7.824954540288308
2022-12-01T00:44:16.657Z,7.748525669247556
2022-12-01T00:47:16.713Z,7.735680487158334
2022-12-01T00:51:16.745Z,7.708063351826058
2022-12-01T00:54:17.084Z,7.697787210593015
2022-12-01T00:57:17.009Z,7.681730742246964
2022-12-01T01:01:15.888Z,7.697144951804603
2022-12-01T01:04:16.219Z,7.6656742767430845
2022-12-01T01:07:16.287Z,7.649617814081376
2022-12-01T01:11:16.331Z,7.607228766310527
2022-12-01T01:14:16.741Z,7.568051027652109
2022-12-01T01:17:16.573Z,7.563555222658851
2022-12-01T01:21:18.883Z,7.553279097796713
2022-12-01T01:24:16.123Z,7.4980449466079335
2022-12-01T01:27:21.277Z,7.471712397996816
2022-12-01T01:31:19.415Z,7.47556594121852
2022-12-01T01:34:16.987Z,7.427396662713818
2022-12-01T01:37:16.962Z,7.430607947151657
2022-12-01T01:41:18.022Z,7.372162588177252
2022-12-01T01:44:52.180Z,7.3901457715431205
2022-12-01T01:47:21.237Z,7.356748433844132
2022-12-01T01:51:20.355Z,7.294449586767951
2022-12-01T01:54:21.492Z,7.270043864526087
2022-12-01T01:57:26.103Z,7.277108678183959
2022-12-01T02:01:16.258Z,7.215452141178048
2022-12-01T02:04:16.558Z,7.187192909056558
2022-12-01T02:07:18.502Z,7.175632316635256
2022-12-01T02:21:28.891Z,7.099203992696493
2022-12-01T02:41:42.435Z,7.018279955186881
2022-12-01T03:01:53.927Z,6.985525008148488
2022-12-01T03:04:49.206Z,6.956623594113625
2022-12-01T03:07:56.636Z,6.932860216139034
2022-12-01T03:11:37.642Z,6.9649728905556
2022-12-01T03:14:29.502Z,6.946347538009286
2022-12-01T03:17:22.838Z,6.968826412249564
2022-12-01T03:21:25.643Z,6.949558805416837
2022-12-01T03:24:20.369Z,6.950201058911989
2022-12-01T03:27:21.092Z,6.963046129770009
2022-12-01T03:31:19.906Z,6.971395426803156
2022-12-01T03:34:21.398Z,6.919372896274217
2022-12-01T03:37:23.647Z,6.893040515651319
2022-12-01T03:41:20.584Z,6.880195454706791
2022-12-01T03:44:20.862Z,6.853863085457124
2022-12-01T03:47:20.061Z,6.819181440060857
2022-12-01T03:51:22.862Z,6.767801249033437
2022-12-01T03:54:24.837Z,6.778077284910614
2022-12-01T03:57:24.452Z,6.7132098279559616
2022-12-01T04:01:17.204Z,6.733119636542687
2022-12-01T04:04:17.012Z,6.669536714749938
2022-12-01T04:07:17.230Z,6.653480428416515
2022-12-01T04:21:16.508Z,6.660545194053066
2022-12-01T04:24:16.784Z,6.60531158646927
2022-12-01T04:27:16.962Z,6.568061032903006
2022-12-01T04:31:16.401Z,6.512827481635123
2022-12-01T04:34:16.862Z,6.484568468410816
2022-12-01T04:37:18.036Z,6.494844472201021
2022-12-01T04:41:18.811Z,6.4736502156592906
2022-12-01T04:44:17.210Z,6.4274082185758745
2022-12-01T04:47:17.071Z,6.392726736233817
2022-12-01T04:51:16.608Z,6.385019741958604
2022-12-01T04:54:17.688Z,6.347127029630156
2022-12-01T04:57:17.097Z,6.322079313221911
2022-12-01T05:01:17.548Z,6.3195103170583025
2022-12-01T05:04:16.422Z,6.269414906410748
2022-12-01T05:07:18.352Z,6.239229223609527
2022-12-01T05:11:17.441Z,6.25785443095956
2022-12-01T05:14:22.408Z,6.210970295623065
2022-12-01T05:21:37.091Z,6.174362152003232
2022-12-01T05:24:37.318Z,6.128120307496647
2022-12-01T05:27:36.799Z,6.097292424255647
2022-12-01T05:31:15.995Z,6.051050619039233
2022-12-01T05:34:16.451Z,6.079951744536902
2022-12-01T05:37:16.194Z,6.006735577828022
2022-12-01T05:41:16.530Z,6.010589058813002
2022-12-01T05:44:16.549Z,5.967558530440146
2022-12-01T05:47:16.404Z,5.961136065269602
2022-12-01T05:51:16.977Z,5.938657440753832
2022-12-01T05:54:17.074Z,5.931592731342244
2022-12-01T06:21:16.804Z,5.835898085336612
2022-12-01T06:24:16.660Z,5.829475629488388
2022-12-01T06:27:16.630Z,5.803143565265055
2022-12-01T06:31:16.350Z,5.742130275099862
2022-12-01T06:34:16.671Z,5.7691045667431355
2022-12-01T06:37:16.918Z,5.7157982362332405
2022-12-01T06:41:16.025Z,5.749194969754899
2022-12-01T06:44:16.393Z,5.722862928837367
2022-12-01T06:47:16.334Z,5.728000887440521
2022-12-01T06:51:16.226Z,5.701668852675721
2022-12-01T06:54:18.118Z,5.717724970525251
2022-12-01T06:57:16.491Z,5.695246406331717
2022-12-01T07:01:17.413Z,5.729927621991737
2022-12-01T07:04:16.714Z,5.704237831340651
2022-12-01T07:07:16.786Z,5.707449054774133
2022-12-01T07:11:16.123Z,5.715155991478332
2022-12-01T07:14:21.681Z,5.731212111715285
2022-12-01T07:17:16.261Z,5.736350070791377
2022-12-01T07:31:18.628Z,5.731212111715285
2022-12-01T07:34:16.878Z,5.733138846334714
2022-12-01T07:37:17.021Z,5.744057009951211
2022-12-01T07:41:17.944Z,5.813419491857348
2022-12-01T07:44:16.653Z,5.836540330946446
2022-12-01T07:47:16.632Z,5.933519470218107
2022-12-01T07:51:17.821Z,6.001597603436039
2022-12-01T07:54:17.913Z,6.089585455082488
2022-12-01T07:57:18.432Z,6.144818748626858
2022-12-01T08:01:18.551Z,6.24115596902011
2022-12-01T08:04:16.828Z,6.296389354860002
2022-12-01T08:07:17.045Z,6.405571728147697
2022-12-01T08:11:20.123Z,6.514754232857376
2022-12-01T08:14:17.167Z,6.580906049646091
2022-12-01T08:17:17.517Z,6.6727479723576835
2022-12-01T08:21:18.825Z,6.792206836142578
2022-12-01T08:24:16.746Z,6.876984189754876
2022-12-01T08:27:16.565Z,6.926437682619962
2022-12-01T08:31:19.163Z,7.0728715598686
2022-12-01T08:34:17.409Z,7.135812509572952
2022-12-01T08:37:16.864Z,7.232150782478948
2022-12-01T08:41:17.215Z,7.368951305808514
2022-12-01T08:44:16.921Z,7.436388259426257
2022-12-01T08:47:18.935Z,7.532084593945183
2022-12-01T08:51:18.099Z,7.656040398804999
2022-12-01T08:54:16.810Z,7.722193047922337
2022-12-01T08:57:17.230Z,7.815320645433621
2022-12-01T09:01:17.481Z,7.925147107431258
2022-12-01T09:04:17.226Z,7.994511257205159
2022-12-01T09:07:23.017Z,8.098557581319255
2022-12-01T09:11:18.240Z,8.190401040663073
2022-12-01T09:14:17.523Z,8.273252912439421
2022-12-01T09:17:17.337Z,8.354820332995677
2022-12-01T09:21:20.006Z,8.473639147723224
2022-12-01T09:24:17.287Z,8.594384913484465
2022-12-01T09:27:17.182Z,8.699074191545606
2022-12-01T09:31:16.906Z,8.86092533774654
2022-12-01T09:34:18.401Z,8.996443781495326
2022-12-01T09:37:16.542Z,9.109483017405728
2022-12-01T09:41:22.454Z,9.307302019199415
2022-12-01T09:44:31.179Z,9.446674756771335
2022-12-01T09:47:25.442Z,9.604673603038918
2022-12-01T09:51:19.124Z,9.832680553294267
2022-12-01T09:54:16.878Z,10.025362929876792
2022-12-01T09:57:33.399Z,10.203273354330396
2022-12-01T10:01:23.050Z,10.4711030628765
2022-12-01T10:04:20.037Z,10.589282370364526
2022-12-01T10:07:22.334Z,10.833991099782088
2022-12-01T10:11:27.585Z,11.106318650848788
2022-12-01T10:14:20.310Z,11.202018857022995
2022-12-01T10:17:27.330Z,11.414614978298868
2022-12-01T10:21:31.071Z,11.751172998635685
2022-12-01T10:24:31.135Z,11.909175858721664
2022-12-01T10:27:38.705Z,12.10764325583732
2022-12-01T10:31:19.519Z,12.318314624928462
2022-12-01T10:34:20.058Z,12.425577369710755
2022-12-01T10:37:19.733Z,12.571377830946949
2022-12-01T10:41:19.493Z,12.857198798330591
2022-12-01T10:44:18.301Z,13.012634399060426
2022-12-01T10:47:19.939Z,13.154582019159353
2022-12-01T10:51:17.469Z,13.344059957707305
2022-12-01T10:54:18.223Z,13.419208944632919
2022-12-01T11:31:17.804Z,15.015979055526259
2022-12-01T11:34:21.201Z,15.202891634006756
2022-12-01T11:37:19.380Z,15.202891634006756
2022-12-01T11:41:27.634Z,15.30566160068056
2022-12-01T11:44:43.530Z,15.369892888968844
2022-12-01T11:51:28.174Z,15.667284346436281
2022-12-01T11:54:18.614Z,15.661503509678823
2022-12-01T11:58:12.603Z,15.797032112792659
2022-12-01T12:01:27.435Z,15.975596173858866
2022-12-01T12:04:29.976Z,16.00321582619954
2022-12-01T12:07:25.857Z,16.041754890028916
2022-12-01T12:11:18.884Z,16.182422611933724
2022-12-01T12:14:30.207Z,16.312813434782676
2022-12-01T12:17:29.865Z,16.412373056231083
2022-12-01T12:21:29.357Z,16.622412099853044
2022-12-01T12:24:37.010Z,16.554968317248857
2022-12-01T12:27:26.317Z,16.633331574133262
2022-12-01T12:31:27.073Z,16.759226784287968
2022-12-01T12:34:29.825Z,16.77078859806061
2022-12-01T12:37:24.105Z,16.853648306548074
2022-12-01T12:41:26.561Z,16.914669070485978
2022-12-01T12:44:37.302Z,16.96669733320532
2022-12-01T12:47:35.074Z,17.03542607167183
2022-12-01T12:51:21.849Z,17.164533468805985
2022-12-01T12:54:24.602Z,17.1857302232067
2022-12-01T12:57:25.406Z,17.205000004231987
2022-12-01T13:01:20.152Z,17.188941853093365
2022-12-01T13:04:20.500Z,17.20949628706012
2022-12-01T13:07:36.649Z,17.296210356618758
2022-12-01T13:11:21.369Z,17.471565728317454
2022-12-01T13:14:22.317Z,17.537083206911575
2022-12-01T13:17:20.275Z,17.51524404212332
2022-12-01T13:21:18.933Z,17.292356396211837
2022-12-01T13:24:23.386Z,17.31291085360717
2022-12-01T13:27:20.554Z,17.259597739362743
2022-12-01T13:31:18.900Z,17.17802231194255
2022-12-01T13:34:23.795Z,17.24225492581936
2022-12-01T13:37:26.400Z,17.201146047699513
2022-12-01T13:41:27.485Z,17.298779663647657
2022-12-01T13:44:23.922Z,17.359158399772422
2022-12-01T13:47:39.034Z,17.374574253732863
2022-12-01T13:51:16.199Z,17.41118691738675
2022-12-01T13:54:35.577Z,17.35466210952736
2022-12-01T13:57:25.846Z,17.315480161109008
2022-12-01T14:01:48.633Z,17.337961604853717
2022-12-01T14:04:25.082Z,17.269232637208187
2022-12-01T14:07:26.850Z,17.26537867794723
2022-12-01T14:11:25.323Z,17.17609533422883
2022-12-01T14:14:25.544Z,17.1799492896972
2022-12-01T14:17:26.360Z,17.115074394462862
2022-12-01T14:21:16.685Z,17.064330696859635
2022-12-01T14:24:22.597Z,17.01294470289222
2022-12-01T14:27:32.945Z,16.957062467487777
2022-12-01T14:31:16.266Z,16.906318858260146
2022-12-01T14:34:19.271Z,16.92237695937656
2022-12-01T14:37:19.998Z,16.8350209236276
2022-12-01T14:41:23.752Z,16.784919705783615
2022-12-01T14:44:24.685Z,16.73867245233014
2022-12-01T14:47:22.640Z,16.628192997837687
2022-12-01T14:51:25.697Z,16.45348157695589
2022-12-01T14:54:24.259Z,16.30382095822506
2022-12-01T14:57:20.843Z,16.196553628016044
2022-12-01T15:01:17.192Z,16.09763656166033
2022-12-01T15:04:17.679Z,16.071301516718176
2022-12-01T15:07:20.261Z,15.958895923034287
2022-12-01T15:11:21.555Z,15.80602453911888
2022-12-01T15:14:22.716Z,15.73922367912055
2022-12-01T15:17:28.371Z,15.734727469156587
2022-12-01T15:21:18.785Z,15.612687569526406
2022-12-01T15:24:21.457Z,15.414212504401803
2022-12-01T15:27:26.422Z,15.395585417017083
2022-12-01T15:31:16.579Z,15.204176257871676
2022-12-01T15:34:20.656Z,15.017905987360518
2022-12-01T15:37:18.743Z,14.95431725843955
2022-12-01T15:41:30.439Z,14.757770559922573
2022-12-01T15:44:20.315Z,14.685832005474731
2022-12-01T15:47:34.717Z,14.462951310535663
2022-12-01T15:51:18.994Z,14.335132369422354
2022-12-01T15:54:20.522Z,14.302374780338232
2022-12-01T15:57:18.960Z,14.193825206930342
2022-12-01T16:01:18.327Z,13.975441843271255
2022-12-01T16:04:19.542Z,13.857258124515647
2022-12-01T16:07:16.693Z,13.79045869940892
2022-12-01T16:11:17.884Z,13.617037344599158
2022-12-01T16:14:21.667Z,13.457104611222984
2022-12-01T16:17:17.194Z,13.34277536018135
2022-12-01T16:21:16.442Z,13.18155851506308
2022-12-01T16:24:20.282Z,13.131459314769382
2022-12-01T16:27:20.235Z,12.976665806613255
2022-12-01T16:31:18.787Z,12.809668957061604
2022-12-01T16:34:44.535Z,12.746724070463916
2022-12-01T16:37:17.091Z,12.627899658683237
2022-12-01T16:41:24.756Z,12.513571452641918
2022-12-01T16:44:28.204Z,12.395389638295455
2022-12-01T16:47:18.496Z,12.27463881308795
2022-12-01T16:51:17.303Z,12.123058217474318
2022-12-01T16:54:16.342Z,12.068463573465943
2022-12-01T16:57:17.518Z,11.966339562885697
2022-12-01T17:01:16.047Z,11.839808715527852
2022-12-01T17:04:16.509Z,11.882199741176828
2022-12-01T17:07:16.406Z,11.776222214195878
2022-12-01T17:11:16.496Z,11.735758100190377
2022-12-01T17:14:16.811Z,11.610512147422195
2022-12-01T17:17:16.993Z,11.583536118689517
2022-12-01T17:21:16.018Z,11.429387536960713
2022-12-01T17:24:19.025Z,11.28358891111211
2022-12-01T17:27:16.608Z,11.213579962590302
2022-12-01T17:31:16.587Z,11.215506813661431
2022-12-01T17:34:16.731Z,11.110814631429093
2022-12-01T17:37:20.859Z,11.018325932919106
2022-12-01T17:41:19.230Z,10.965658799515586
2022-12-01T17:44:16.514Z,10.965016517589628
2022-12-01T17:47:16.684Z,10.791600563950578
2022-12-01T17:51:16.829Z,10.758201973913765
2022-12-01T17:54:16.861Z,10.675990112363888
2022-12-01T17:57:16.905Z,10.645802963152528
2022-12-01T18:01:19.201Z,10.512208891496993
2022-12-01T18:04:17.233Z,10.507070661900798
2022-12-01T18:07:17.084Z,10.477525847370634
2022-12-01T18:11:16.780Z,10.435135478113079
2022-12-01T18:14:18.011Z,10.395314240188236
2022-12-01T18:17:16.310Z,10.372192239092328
2022-12-01T18:21:19.081Z,10.324663699792291
2022-12-01T18:24:16.836Z,10.267501030105723
2022-12-01T18:27:16.947Z,10.166021323217228
2022-12-01T18:31:16.143Z,10.245663615239845
2022-12-01T18:34:16.401Z,10.136476619763652
2022-12-01T18:37:16.514Z,10.107574201783063
2022-12-01T18:41:16.799Z,10.178224573103943
2022-12-01T18:44:16.604Z,10.15381807497215
2022-12-01T18:47:16.411Z,10.12234654760041
2022-12-01T18:51:17.684Z,10.060045801126398
2022-12-01T18:54:16.687Z,10.054907597141574
2022-12-01T18:57:17.892Z,10.034997059449324
2022-12-01T19:01:20.256Z,10.00416784841882
2022-12-01T19:04:17.063Z,9.988753246832584
2022-12-01T19:07:16.919Z,9.907826631478475
2022-12-01T19:11:16.974Z,9.894338869271815
2022-12-01T19:14:18.055Z,9.895623417966998
2022-12-01T19:17:16.915Z,9.873786092622685
2022-12-01T19:21:18.511Z,9.953428128076848
2022-12-01T19:24:16.498Z,9.925168042976656
2022-12-01T19:27:16.481Z,9.922598944767742
2022-12-01T19:31:19.831Z,9.927094866681092
2022-12-01T19:34:17.027Z,9.912964827132328
2022-12-01T19:37:17.001Z,9.911038003728027
2022-12-01T19:41:16.766Z,9.918745297590794
2022-12-01T19:44:17.001Z,9.903330710520095
2022-12-01T19:47:21.911Z,9.918103023077219
2022-12-01T19:51:17.243Z,9.907826631478475
2022-12-01T19:54:18.321Z,9.894981143617134
2022-12-01T19:57:16.404Z,9.903330710520095
2022-12-01T20:01:17.712Z,9.887273851773443
2022-12-01T20:04:16.533Z,9.912964827132328
2022-12-01T20:07:16.460Z,9.90011933854339
2022-12-01T20:11:17.456Z,9.903330710520095
2022-12-01T20:14:17.271Z,9.876997463667157
2022-12-01T20:17:17.190Z,9.92324121931315
2022-12-01T20:21:19.480Z,9.860940609581666
2022-12-01T20:24:17.423Z,9.903330710520095
2022-12-01T20:27:16.593Z,9.87828201211678
2022-12-01T20:31:18.863Z,9.864794254302979
2022-12-01T20:34:18.334Z,9.832038279390053
2022-12-01T20:37:16.336Z,9.84616830633322
2022-12-01T20:41:16.877Z,9.894981143617134
2022-12-01T20:44:17.487Z,9.875070641026833
2022-12-01T20:47:18.716Z,9.856444690947047
2022-12-01T20:51:16.611Z,9.899477064161692
2022-12-01T20:54:27.787Z,9.896265692321412
2022-12-01T20:57:16.755Z,9.916176199563779
2022-12-01T21:01:16.793Z,9.898192515411939
2022-12-01T21:04:16.695Z,9.905899808183312
2022-12-01T21:07:16.547Z,9.846810580337479
2022-12-01T21:11:18.672Z,9.799282316305106
2022-12-01T21:14:21.496Z,9.81919280226075
2022-12-01T21:17:27.543Z,9.749827257194648
2022-12-01T21:21:22.453Z,9.76652636504814
2022-12-01T21:24:18.897Z,9.726705420626331
2022-12-01T21:27:16.920Z,9.656055400961577
2022-12-01T21:31:16.456Z,9.608527236873579
2022-12-01T21:34:18.795Z,9.549438202731926
2022-12-01T21:37:21.211Z,9.530170047746742
2022-12-01T21:41:22.256Z,9.471723335994465
2022-12-01T21:44:18.636Z,9.465300622713766
2022-12-01T21:47:22.419Z,9.440894316394406
2022-12-01T21:51:20.148Z,9.372171331245863
2022-12-01T21:54:20.353Z,9.317578342767955
2022-12-01T21:57:31.509Z,9.26683900646467
2022-12-01T22:01:26.390Z,9.28225348537826
2022-12-01T22:04:19.741Z,9.239221404961791
2022-12-01T22:07:16.903Z,9.218668776742197
2022-12-01T22:11:18.732Z,9.198758422595073
2022-12-01T22:14:20.154Z,9.097922179993839
2022-12-01T22:17:19.499Z,9.102418061034495
2022-12-01T22:21:34.070Z,9.114621167839505
2022-12-01T22:24:21.617Z,9.069662361411975
2022-12-01T22:27:28.657Z,9.058743797499574
2022-12-01T22:31:20.384Z,9.036264405347538
2022-12-01T22:34:19.530Z,9.042044819940292
2022-12-01T22:37:20.575Z,9.038191210170861
2022-12-01T22:41:18.638Z,8.99451697755876
2022-12-01T22:44:16.754Z,9.004150997650868
2022-12-01T22:47:16.458Z,8.977175743971383
2022-12-01T22:51:23.157Z,8.963688120139796
2022-12-01T22:54:26.091Z,8.95341183666178
2022-12-01T22:57:30.198Z,8.93285927319821
2022-12-01T23:01:23.802Z,8.958549978255268
2022-12-01T23:04:23.715Z,8.942493286741955
2022-12-01T23:07:27.348Z,8.880193350577702
2022-12-01T23:11:15.792Z,8.866705741166152
2022-12-01T23:14:20.310Z,8.860283070722653
2022-12-01T23:17:19.873Z,8.774219330653796
2022-12-01T23:21:15.511Z,8.726049362524737
2022-12-01T23:24:17.478Z,8.744675080501475
2022-12-01T23:27:17.178Z,8.687513406438757
2022-12-01T23:31:15.895Z,8.5975962392361
2022-12-01T23:34:17.293Z,8.616221930837492
2022-12-01T23:37:30.886Z,8.62842497223619
2022-12-01T23:41:25.902Z,8.616221930837492
2022-12-01T23:44:20.208Z,8.575116961362074
2022-12-01T23:47:20.634Z,8.528873892966658
2022-12-01T23:51:19.394Z,8.486484434313388
2022-12-01T23:54:20.140Z,8.444737259546036
2022-12-01T23:57:20.088Z,8.363169758135701
